Time;durP1;ratioP1;P1;durP2;ratioP2;P2;SDS_P1;SDS_P2;PMS_P1;PMS_P2;Temp;Humidity;BMP_temperature;BMP_pressure;BME280_temperature;BME280_humidity;BME280_pressure;Samples;Min_cycle;Max_cycle;Signal;HPM_P1;HPM_P2
2022/02/23 00:01:49;;;;;;;;;;;23.90;43.80;;;;;;1596028;73;1136;-67
2022/02/23 00:03:51;;;;;;;;;;;23.90;43.80;;;;;;1612979;73;760;-68
2022/02/23 00:05:53;;;;;;;;;;;23.90;43.90;;;;;;1612821;73;739;-68
2022/02/23 00:07:55;;;;;;;;;;;23.90;43.90;;;;;;1612164;73;834;-69
2022/02/23 00:09:57;;;;;;;;;;;23.90;43.90;;;;;;1593401;73;762;-68
2022/02/23 00:11:59;;;;;;;;;;;23.90;43.90;;;;;;1593874;73;1132;-69
2022/02/23 00:14:01;;;;;;;;;;;24.00;43.90;;;;;;1612832;73;821;-70
2022/02/23 00:16:03;;;;;;;;;;;23.90;43.90;;;;;;1612526;73;914;-71
2022/02/23 00:18:06;;;;;;;;;;;23.90;43.90;;;;;;1603298;73;804;-69
2022/02/23 00:20:09;;;;;;;;;;;24.00;43.90;;;;;;1588965;73;2008;-69
2022/02/23 00:22:11;;;;;;;;;;;24.00;43.90;;;;;;1559830;74;1175;-70
2022/02/23 00:24:14;;;;;;;;;;;23.90;43.90;;;;;;1561386;74;793;-69
2022/02/23 00:26:16;;;;;;;;;;;23.90;44.00;;;;;;1562335;74;809;-69
2022/02/23 00:28:18;;;;;;;;;;;23.90;43.90;;;;;;1580868;74;747;-69
2022/02/23 00:30:20;;;;;;;;;;;24.00;44.00;;;;;;1571691;74;774;-69
2022/02/23 00:32:22;;;;;;;;;;;23.90;44.00;;;;;;1563064;74;1190;-68
2022/02/23 00:34:24;;;;;;;;;;;23.90;44.00;;;;;;1561360;74;807;-70
2022/02/23 00:36:26;;;;;;;;;;;23.90;44.00;;;;;;1563259;74;869;-71
2022/02/23 00:38:28;;;;;;;;;;;23.90;44.00;;;;;;1562762;74;1947;-69
2022/02/23 00:40:30;;;;;;;;;;;23.90;44.00;;;;;;1566337;74;778;-69
2022/02/23 00:42:32;;;;;;;;;;;23.90;44.00;;;;;;1585757;74;1198;-69
2022/02/23 00:44:34;;;;;;;;;;;23.90;44.00;;;;;;1560804;74;741;-69
2022/02/23 00:46:35;;;;;;;;;;;23.90;44.00;;;;;;1562194;74;782;-68
2022/02/23 00:48:37;;;;;;;;;;;23.80;43.90;;;;;;1564882;74;661;-69
2022/02/23 00:50:39;;;;;;;;;;;23.90;44.00;;;;;;1562988;74;733;-70
2022/02/23 00:52:41;;;;;;;;;;;23.80;43.90;;;;;;1554909;75;1104;-67
2022/02/23 00:54:43;;;;;;;;;;;23.90;44.00;;;;;;1567951;75;797;-69
2022/02/23 00:56:49;;;;;;;;;;;23.90;44.10;;;;;;1551349;77;826;-68
2022/02/23 00:58:51;;;;;;;;;;;23.80;43.90;;;;;;1550812;76;1933;-68
2022/02/23 01:00:53;;;;;;;;;;;23.80;43.90;;;;;;1551419;77;948;-69
2022/02/23 01:02:55;;;;;;;;;;;23.90;44.10;;;;;;1551354;77;1062;-70
2022/02/23 01:04:57;;;;;;;;;;;23.90;44.20;;;;;;1552886;75;764;-67
2022/02/23 01:06:58;;;;;;;;;;;23.80;44.00;;;;;;1551574;77;671;-70
2022/02/23 01:09:00;;;;;;;;;;;23.90;44.10;;;;;;1565507;74;728;-71
2022/02/23 01:11:02;;;;;;;;;;;23.80;44.00;;;;;;1566997;74;1153;-69
2022/02/23 01:13:04;;;;;;;;;;;23.80;44.00;;;;;;1557034;74;707;-69
2022/02/23 01:15:06;;;;;;;;;;;23.80;44.10;;;;;;1554837;75;764;-67
2022/02/23 01:17:09;;;;;;;;;;;23.80;44.10;;;;;;1566521;75;752;-69
2022/02/23 01:19:11;;;;;;;;;;;23.70;44.00;;;;;;1578132;75;1919;-70
2022/02/23 01:21:13;;;;;;;;;;;23.70;44.00;;;;;;1564278;75;1198;-69
2022/02/23 01:23:14;;;;;;;;;;;23.80;44.00;;;;;;1559369;76;727;-69
2022/02/23 01:25:16;;;;;;;;;;;23.70;44.10;;;;;;1559164;76;781;-69
2022/02/23 01:27:18;;;;;;;;;;;23.80;44.00;;;;;;1555747;76;827;-69
2022/02/23 01:29:20;;;;;;;;;;;23.70;44.10;;;;;;1540432;76;701;-69
2022/02/23 01:31:22;;;;;;;;;;;23.80;44.10;;;;;;1536889;71;2077;-69
2022/02/23 01:33:24;;;;;;;;;;;23.80;44.10;;;;;;1654002;72;683;-69
2022/02/23 01:35:26;;;;;;;;;;;23.80;44.10;;;;;;1653946;72;707;-67
2022/02/23 01:37:28;;;;;;;;;;;23.80;44.10;;;;;;1654255;72;694;-67
2022/02/23 01:39:30;;;;;;;;;;;23.70;44.10;;;;;;1643445;71;1935;-67
2022/02/23 01:41:31;;;;;;;;;;;23.80;44.10;;;;;;1650380;72;1200;-67
2022/02/23 01:43:34;;;;;;;;;;;23.80;44.10;;;;;;1624975;73;735;-67
2022/02/23 01:45:35;;;;;;;;;;;23.70;44.10;;;;;;1624700;73;798;-67
2022/02/23 01:47:38;;;;;;;;;;;23.80;44.20;;;;;;1624610;73;688;-68
2022/02/23 01:49:40;;;;;;;;;;;23.80;44.20;;;;;;1624493;73;714;-67
2022/02/23 01:51:42;;;;;;;;;;;23.80;44.20;;;;;;1624893;72;1126;-68
2022/02/23 01:53:43;;;;;;;;;;;23.80;44.20;;;;;;1624843;73;711;-68
2022/02/23 01:55:46;;;;;;;;;;;23.80;44.20;;;;;;1624784;73;767;-68
2022/02/23 01:57:47;;;;;;;;;;;23.70;44.20;;;;;;1624490;73;742;-69
2022/02/23 01:59:49;;;;;;;;;;;23.70;44.20;;;;;;1624882;73;1929;-69
2022/02/23 02:01:52;;;;;;;;;;;23.70;44.20;;;;;;1624779;72;1249;-68
2022/02/23 02:03:54;;;;;;;;;;;23.80;44.20;;;;;;1624901;73;799;-69
2022/02/23 02:05:56;;;;;;;;;;;23.70;44.20;;;;;;1624426;73;676;-69
2022/02/23 02:07:58;;;;;;;;;;;23.70;44.20;;;;;;1624903;73;735;-69
2022/02/23 02:10:00;;;;;;;;;;;23.80;44.30;;;;;;1624818;73;769;-67
2022/02/23 02:12:02;;;;;;;;;;;23.80;44.20;;;;;;1624746;72;1135;-67
2022/02/23 02:14:04;;;;;;;;;;;23.70;44.20;;;;;;1624551;73;753;-68
2022/02/23 02:16:05;;;;;;;;;;;23.80;44.20;;;;;;1626096;71;765;-67
2022/02/23 02:18:07;;;;;;;;;;;23.70;44.30;;;;;;1660119;71;712;-67
2022/02/23 02:20:10;;;;;;;;;;;23.80;44.20;;;;;;1597754;73;1941;-67
2022/02/23 02:22:12;;;;;;;;;;;23.70;44.20;;;;;;1596269;74;1132;-67
2022/02/23 02:24:14;;;;;;;;;;;23.80;44.30;;;;;;1596241;74;766;-67
2022/02/23 02:26:16;;;;;;;;;;;23.80;44.30;;;;;;1596406;74;771;-67
2022/02/23 02:28:17;;;;;;;;;;;23.80;44.20;;;;;;1607980;73;729;-68
2022/02/23 02:30:19;;;;;;;;;;;23.70;44.20;;;;;;1624825;73;712;-68
2022/02/23 02:32:21;;;;;;;;;;;23.70;44.30;;;;;;1624866;72;1139;-67
2022/02/23 02:34:23;;;;;;;;;;;23.80;44.30;;;;;;1624962;73;689;-67
2022/02/23 02:36:25;;;;;;;;;;;23.70;44.30;;;;;;1624516;73;707;-68
2022/02/23 02:38:27;;;;;;;;;;;23.70;44.30;;;;;;1624987;73;792;-68
2022/02/23 02:40:29;;;;;;;;;;;23.70;44.30;;;;;;1596759;73;1938;-67
2022/02/23 02:42:30;;;;;;;;;;;23.80;44.30;;;;;;1596351;74;1163;-68
2022/02/23 02:44:32;;;;;;;;;;;23.70;44.20;;;;;;1606239;72;560;-68
2022/02/23 02:46:34;;;;;;;;;;;23.70;44.20;;;;;;1600536;73;731;-67
2022/02/23 02:48:36;;;;;;;;;;;23.70;44.30;;;;;;1610815;73;719;-68
2022/02/23 02:50:38;;;;;;;;;;;23.80;44.30;;;;;;1620527;73;809;-68
2022/02/23 02:52:40;;;;;;;;;;;23.70;44.30;;;;;;1610464;73;1133;-68
2022/02/23 02:54:42;;;;;;;;;;;23.70;44.40;;;;;;1609556;74;766;-67
2022/02/23 02:56:44;;;;;;;;;;;23.60;44.20;;;;;;1614562;73;714;-69
2022/02/23 02:58:55;;;;;;;;;;;23.70;44.30;;;;;;1636436;72;647;-67
2022/02/23 03:00:56;;;;;;;;;;;23.70;44.40;;;;;;1605923;73;1923;-67
2022/02/23 03:02:58;;;;;;;;;;;23.70;44.40;;;;;;1604016;73;1160;-68
2022/02/23 03:05:00;;;;;;;;;;;23.70;44.40;;;;;;1614121;73;695;-68
2022/02/23 03:07:02;;;;;;;;;;;23.70;44.40;;;;;;1609498;74;644;-68
2022/02/23 03:09:05;;;;;;;;;;;23.70;44.40;;;;;;1609414;74;713;-68
2022/02/23 03:11:06;;;;;;;;;;;23.60;44.30;;;;;;1609450;74;720;-67
2022/02/23 03:13:09;;;;;;;;;;;23.60;44.30;;;;;;1612327;71;1224;-68
2022/02/23 03:15:11;;;;;;;;;;;23.60;44.30;;;;;;1602831;73;801;-67
2022/02/23 03:17:13;;;;;;;;;;;23.70;44.40;;;;;;1634630;71;719;-67
2022/02/23 03:19:16;;;;;;;;;;;23.70;44.40;;;;;;1641919;71;732;-67
2022/02/23 03:21:17;;;;;;;;;;;23.70;44.50;;;;;;1624766;73;1912;-67
2022/02/23 03:23:19;;;;;;;;;;;23.70;44.40;;;;;;1624942;73;684;-65
2022/02/23 03:25:21;;;;;;;;;;;23.70;44.50;;;;;;1624724;73;711;-66
2022/02/23 03:27:23;;;;;;;;;;;23.70;44.60;;;;;;1624884;73;772;-66
2022/02/23 03:29:25;;;;;;;;;;;23.70;44.60;;;;;;1624445;73;719;-66
2022/02/23 03:31:27;;;;;;;;;;;23.70;44.60;;;;;;1624926;72;1283;-65
2022/02/23 03:33:29;;;;;;;;;;;23.70;44.70;;;;;;1619663;73;729;-65
2022/02/23 03:35:31;;;;;;;;;;;23.70;44.60;;;;;;1613693;74;790;-66
2022/02/23 03:37:33;;;;;;;;;;;23.70;44.70;;;;;;1613609;73;771;-66
2022/02/23 03:39:35;;;;;;;;;;;23.80;44.70;;;;;;1613868;74;1931;-66
2022/02/23 03:41:36;;;;;;;;;;;23.80;44.70;;;;;;1613708;73;1143;-66
2022/02/23 03:43:38;;;;;;;;;;;23.80;44.60;;;;;;1613900;74;694;-66
2022/02/23 03:45:40;;;;;;;;;;;23.80;44.70;;;;;;1613793;74;652;-67
2022/02/23 03:47:42;;;;;;;;;;;23.90;44.70;;;;;;1613516;74;700;-68
2022/02/23 03:49:44;;;;;;;;;;;23.90;44.70;;;;;;1613547;73;737;-68
2022/02/23 03:51:46;;;;;;;;;;;23.90;44.70;;;;;;1613873;73;1302;-67
2022/02/23 03:53:48;;;;;;;;;;;24.00;44.70;;;;;;1613957;74;694;-67
2022/02/23 03:55:50;;;;;;;;;;;24.00;44.60;;;;;;1611837;73;705;-66
2022/02/23 03:57:52;;;;;;;;;;;24.00;44.50;;;;;;1609984;74;645;-67
2022/02/23 03:59:53;;;;;;;;;;;24.10;44.60;;;;;;1591596;74;1982;-67
2022/02/23 04:01:56;;;;;;;;;;;24.10;44.50;;;;;;1585986;74;1161;-67
2022/02/23 04:03:57;;;;;;;;;;;24.10;44.40;;;;;;1586003;75;713;-67
2022/02/23 04:05:59;;;;;;;;;;;24.20;44.40;;;;;;1585987;75;761;-67
2022/02/23 04:08:01;;;;;;;;;;;24.20;44.40;;;;;;1598811;73;735;-68
2022/02/23 04:10:04;;;;;;;;;;;24.30;44.40;;;;;;1614216;73;783;-68
2022/02/23 04:12:06;;;;;;;;;;;24.30;44.40;;;;;;1613191;73;1150;-70
2022/02/23 04:14:08;;;;;;;;;;;24.30;44.30;;;;;;1591542;74;725;-66
2022/02/23 04:16:09;;;;;;;;;;;24.30;44.30;;;;;;1582214;74;729;-67
2022/02/23 04:18:11;;;;;;;;;;;24.30;44.30;;;;;;1612844;74;731;-68
2022/02/23 04:20:13;;;;;;;;;;;24.30;44.20;;;;;;1613427;74;1934;-68
2022/02/23 04:22:15;;;;;;;;;;;24.30;44.20;;;;;;1613791;73;1111;-67
2022/02/23 04:24:17;;;;;;;;;;;24.40;44.10;;;;;;1613746;74;713;-67
2022/02/23 04:26:19;;;;;;;;;;;24.30;44.10;;;;;;1613812;74;712;-67
2022/02/23 04:28:25;;;;;;;;;;;24.30;44.10;;;;;;1613949;74;670;-68
2022/02/23 04:30:24;;;;;;;;;;;24.40;44.20;;;;;;1612994;73;1586;-65
2022/02/23 04:32:26;;;;;;;;;;;24.40;44.10;;;;;;1613932;73;1131;-66
2022/02/23 04:34:28;;;;;;;;;;;24.40;44.00;;;;;;1613848;74;770;-67
2022/02/23 04:36:30;;;;;;;;;;;24.40;44.10;;;;;;1613407;73;639;-66
2022/02/23 04:38:32;;;;;;;;;;;24.40;44.00;;;;;;1613993;74;762;-66
2022/02/23 04:40:34;;;;;;;;;;;24.50;44.10;;;;;;1613827;74;1944;-67
2022/02/23 04:42:35;;;;;;;;;;;24.50;44.00;;;;;;1613947;73;1151;-66
2022/02/23 04:44:37;;;;;;;;;;;24.40;43.90;;;;;;1621775;73;785;-66
2022/02/23 04:46:39;;;;;;;;;;;24.50;44.00;;;;;;1613877;73;728;-65
2022/02/23 04:48:42;;;;;;;;;;;24.50;44.00;;;;;;1613910;74;776;-68
2022/02/23 04:50:44;;;;;;;;;;;24.50;43.90;;;;;;1592931;73;729;-68
2022/02/23 04:52:46;;;;;;;;;;;24.50;43.90;;;;;;1585965;74;1120;-69
2022/02/23 04:54:48;;;;;;;;;;;24.40;43.90;;;;;;1586020;75;797;-67
2022/02/23 04:56:50;;;;;;;;;;;24.50;43.90;;;;;;1585977;75;866;-68
2022/02/23 04:58:52;;;;;;;;;;;24.50;44.00;;;;;;1610391;74;703;-68
2022/02/23 05:00:54;;;;;;;;;;;24.50;43.90;;;;;;1613889;74;1926;-67
2022/02/23 05:02:55;;;;;;;;;;;24.50;43.90;;;;;;1613875;73;1131;-67
2022/02/23 05:04:57;;;;;;;;;;;24.50;43.90;;;;;;1613917;74;724;-69
2022/02/23 05:06:59;;;;;;;;;;;24.50;43.90;;;;;;1613465;73;802;-68
2022/02/23 05:09:01;;;;;;;;;;;24.50;43.80;;;;;;1613471;74;736;-66
2022/02/23 05:11:03;;;;;;;;;;;24.50;43.70;;;;;;1586082;75;705;-67
2022/02/23 05:13:05;;;;;;;;;;;24.50;43.70;;;;;;1587216;72;1202;-68
2022/02/23 05:15:07;;;;;;;;;;;24.50;43.70;;;;;;1605485;74;740;-68
2022/02/23 05:17:11;;;;;;;;;;;24.50;43.60;;;;;;1623304;72;720;-68
2022/02/23 05:19:12;;;;;;;;;;;24.50;43.70;;;;;;1596678;74;1132;-68
2022/02/23 05:21:14;;;;;;;;;;;24.50;43.60;;;;;;1613878;74;1942;-68
2022/02/23 05:23:17;;;;;;;;;;;24.50;43.60;;;;;;1613897;73;1185;-69
2022/02/23 05:25:19;;;;;;;;;;;24.60;43.60;;;;;;1613681;74;773;-68
2022/02/23 05:27:20;;;;;;;;;;;24.60;43.60;;;;;;1613596;73;756;-69
2022/02/23 05:29:23;;;;;;;;;;;24.60;43.50;;;;;;1613901;74;769;-67
2022/02/23 05:31:25;;;;;;;;;;;24.60;43.50;;;;;;1613800;73;1135;-67
2022/02/23 05:33:26;;;;;;;;;;;24.50;43.60;;;;;;1613977;74;683;-67
2022/02/23 05:35:29;;;;;;;;;;;24.60;43.60;;;;;;1613203;74;768;-68
2022/02/23 05:37:30;;;;;;;;;;;24.50;43.60;;;;;;1613881;74;728;-66
2022/02/23 05:39:32;;;;;;;;;;;24.60;43.70;;;;;;1613953;74;756;-67
2022/02/23 05:41:34;;;;;;;;;;;24.60;43.50;;;;;;1613749;73;1940;-67
2022/02/23 05:43:36;;;;;;;;;;;24.60;43.40;;;;;;1613698;73;769;-67
2022/02/23 05:45:38;;;;;;;;;;;24.60;43.30;;;;;;1613741;73;664;-71
2022/02/23 05:47:40;;;;;;;;;;;24.60;43.30;;;;;;1613351;73;723;-66
2022/02/23 05:49:42;;;;;;;;;;;24.60;43.20;;;;;;1593637;73;712;-67
2022/02/23 05:51:46;;;;;;;;;;;24.70;43.40;;;;;;1613701;73;1154;-66
2022/02/23 05:53:47;;;;;;;;;;;24.70;43.40;;;;;;1614133;73;1576;-67
2022/02/23 05:55:49;;;;;;;;;;;24.70;43.40;;;;;;1609265;73;648;-67
2022/02/23 05:57:51;;;;;;;;;;;24.60;43.20;;;;;;1622078;73;760;-66
2022/02/23 05:59:53;;;;;;;;;;;24.60;43.20;;;;;;1616266;73;714;-67
2022/02/23 06:01:55;;;;;;;;;;;24.60;43.30;;;;;;1613833;73;1938;-67
2022/02/23 06:03:57;;;;;;;;;;;24.60;43.30;;;;;;1613793;74;681;-69
2022/02/23 06:06:00;;;;;;;;;;;24.60;43.30;;;;;;1613693;74;803;-66
2022/02/23 06:08:02;;;;;;;;;;;24.70;43.40;;;;;;1613352;73;777;-66
2022/02/23 06:10:05;;;;;;;;;;;24.50;43.30;;;;;;1613972;74;698;-68
2022/02/23 06:12:07;;;;;;;;;;;24.50;43.20;;;;;;1613807;73;1163;-65
2022/02/23 06:14:09;;;;;;;;;;;24.50;43.40;;;;;;1613773;74;722;-72
2022/02/23 06:16:11;;;;;;;;;;;24.50;43.30;;;;;;1590776;73;782;-68
2022/02/23 06:18:13;;;;;;;;;;;24.60;43.20;;;;;;1619073;73;770;-70
2022/02/23 06:20:15;;;;;;;;;;;24.60;43.30;;;;;;1613505;74;706;-68
2022/02/23 06:22:17;;;;;;;;;;;24.60;43.30;;;;;;1613792;73;1932;-68
2022/02/23 06:24:19;;;;;;;;;;;24.60;43.30;;;;;;1608532;73;777;-68
2022/02/23 06:26:22;;;;;;;;;;;24.60;43.20;;;;;;1616571;73;760;-69
2022/02/23 06:28:24;;;;;;;;;;;24.60;43.20;;;;;;1620968;73;715;-69
2022/02/23 06:30:26;;;;;;;;;;;24.60;43.20;;;;;;1613848;74;745;-69
2022/02/23 06:32:28;;;;;;;;;;;24.60;43.20;;;;;;1613939;73;1087;-68
2022/02/23 06:34:30;;;;;;;;;;;24.50;43.10;;;;;;1613948;74;772;-69
2022/02/23 06:36:31;;;;;;;;;;;24.50;43.20;;;;;;1613673;74;688;-69
2022/02/23 06:38:36;;;;;;;;;;;24.60;43.20;;;;;;1613680;73;646;-70
2022/02/23 06:40:37;;;;;;;;;;;24.50;43.20;;;;;;1613343;72;1159;-68
2022/02/23 06:42:39;;;;;;;;;;;24.50;43.30;;;;;;1613713;73;1896;-69
2022/02/23 06:44:41;;;;;;;;;;;24.50;43.20;;;;;;1613933;74;709;-70
2022/02/23 06:46:43;;;;;;;;;;;24.50;43.30;;;;;;1613384;73;709;-70
2022/02/23 06:48:45;;;;;;;;;;;24.50;43.20;;;;;;1613870;74;701;-69
2022/02/23 06:50:47;;;;;;;;;;;24.50;43.30;;;;;;1613461;73;691;-68
2022/02/23 06:52:49;;;;;;;;;;;24.50;43.20;;;;;;1613721;73;1197;-70
2022/02/23 06:54:50;;;;;;;;;;;24.50;43.10;;;;;;1613721;73;664;-71
2022/02/23 06:56:52;;;;;;;;;;;24.40;43.10;;;;;;1598803;74;797;-71
2022/02/23 06:58:55;;;;;;;;;;;24.40;43.10;;;;;;1609397;74;916;-71
2022/02/23 07:00:57;;;;;;;;;;;24.50;43.20;;;;;;1613825;74;1906;-71
2022/02/23 07:02:59;;;;;;;;;;;24.50;43.30;;;;;;1613741;73;1087;-72
2022/02/23 07:05:01;;;;;;;;;;;24.50;43.20;;;;;;1613791;74;730;-71
2022/02/23 07:07:03;;;;;;;;;;;24.40;43.20;;;;;;1613696;73;668;-69
2022/02/23 07:09:05;;;;;;;;;;;24.40;43.10;;;;;;1613728;74;830;-71
2022/02/23 07:11:07;;;;;;;;;;;24.40;43.10;;;;;;1613551;73;722;-70
2022/02/23 07:13:11;;;;;;;;;;;24.50;43.20;;;;;;1613768;73;1483;-70
2022/02/23 07:15:12;;;;;;;;;;;24.50;43.20;;;;;;1606540;72;980;-70
2022/02/23 07:17:14;;;;;;;;;;;24.40;43.10;;;;;;1619335;72;664;-71
2022/02/23 07:19:17;;;;;;;;;;;24.50;43.20;;;;;;1611861;73;713;-71
2022/02/23 07:21:19;;;;;;;;;;;24.50;43.20;;;;;;1613422;73;1908;-69
2022/02/23 07:23:21;;;;;;;;;;;24.40;43.10;;;;;;1613719;73;676;-70
2022/02/23 07:25:23;;;;;;;;;;;24.40;43.10;;;;;;1613539;73;752;-70
2022/02/23 07:27:26;;;;;;;;;;;24.40;43.10;;;;;;1613321;73;716;-70
2022/02/23 07:29:28;;;;;;;;;;;24.40;43.10;;;;;;1618936;73;779;-70
2022/02/23 07:31:49;;;;;;;;;;;24.50;43.10;;;;;;1588604;73;1151;-64
2022/02/23 07:33:51;;;;;;;;;;;24.40;43.10;;;;;;1575051;74;667;-68
2022/02/23 07:35:53;;;;;;;;;;;24.40;43.00;;;;;;1557429;76;724;-69
2022/02/23 07:37:57;;;;;;;;;;;24.30;43.00;;;;;;1568194;73;720;-69
2022/02/23 07:40:00;;;;;;;;;;;24.30;43.10;;;;;;1563229;74;805;-68
2022/02/23 07:42:02;;;;;;;;;;;24.30;43.10;;;;;;1560641;74;1944;-69
2022/02/23 07:44:04;;;;;;;;;;;24.30;43.10;;;;;;1558089;75;753;-68
2022/02/23 07:46:08;;;;;;;;;;;24.30;43.10;;;;;;1556350;75;739;-68
2022/02/23 07:48:10;;;;;;;;;;;24.30;43.10;;;;;;1551890;75;1928;-70
2022/02/23 07:50:15;;;;;;;;;;;24.30;43.00;;;;;;1554725;76;733;-70
2022/02/23 07:52:16;;;;;;;;;;;24.30;43.00;;;;;;1552952;75;1687;-68
2022/02/23 07:54:17;;;;;;;;;;;24.30;43.00;;;;;;1572125;75;790;-67
2022/02/23 07:56:21;;;;;;;;;;;24.30;43.00;;;;;;1562025;76;751;-68
2022/02/23 07:58:23;;;;;;;;;;;24.40;42.90;;;;;;1563559;76;699;-70
2022/02/23 08:00:25;;;;;;;;;;;24.40;42.90;;;;;;1556916;76;652;-70
2022/02/23 08:02:28;;;;;;;;;;;24.30;42.80;;;;;;1558930;75;1931;-72
2022/02/23 08:04:32;;;;;;;;;;;24.30;42.30;;;;;;1584128;75;1589;-70
2022/02/23 08:06:34;;;;;;;;;;;24.30;42.60;;;;;;1558341;74;1441;-68
2022/02/23 08:08:36;;;;;;;;;;;24.20;42.50;;;;;;1551583;75;1000;-70
2022/02/23 08:10:38;;;;;;;;;;;24.20;42.60;;;;;;1563055;75;761;-69
2022/02/23 08:12:40;;;;;;;;;;;24.10;42.40;;;;;;1544234;75;1143;-68
2022/02/23 08:14:42;;;;;;;;;;;24.10;42.30;;;;;;1578860;75;823;-69
2022/02/23 08:21:24;;;;;;;;;;;24.00;42.00;;;;;;1556374;75;1936;-69
2022/02/23 08:23:26;;;;;;;;;;;24.00;41.60;;;;;;1564961;75;1137;-69
2022/02/23 08:25:28;;;;;;;;;;;23.90;41.50;;;;;;1573951;75;818;-70
2022/02/23 08:27:31;;;;;;;;;;;24.00;41.70;;;;;;1551117;75;735;-70
2022/02/23 08:29:34;;;;;;;;;;;24.00;41.50;;;;;;1554873;75;1379;-70
2022/02/23 08:31:37;;;;;;;;;;;24.00;41.20;;;;;;1555912;75;709;-70
2022/02/23 08:33:41;;;;;;;;;;;24.00;41.20;;;;;;1554959;76;751;-70
2022/02/23 08:35:43;;;;;;;;;;;23.90;41.10;;;;;;1552969;75;827;-71
2022/02/23 08:37:45;;;;;;;;;;;24.00;40.80;;;;;;1553103;75;782;-73
2022/02/23 08:39:48;;;;;;;;;;;24.00;40.60;;;;;;1557386;75;789;-74
2022/02/23 08:41:50;;;;;;;;;;;24.00;40.20;;;;;;1548688;75;1912;-69
2022/02/23 08:43:52;;;;;;;;;;;23.90;40.00;;;;;;1587404;75;742;-69
2022/02/23 08:45:54;;;;;;;;;;;24.00;39.90;;;;;;1554359;75;808;-73
2022/02/23 08:47:56;;;;;;;;;;;24.00;39.70;;;;;;1554236;75;572;-70
2022/02/23 08:49:57;;;;;;;;;;;24.00;39.80;;;;;;1564843;75;732;-71
2022/02/23 08:51:59;;;;;;;;;;;23.90;39.60;;;;;;1565369;75;1161;-75
2022/02/23 08:54:01;;;;;;;;;;;24.00;39.60;;;;;;1568248;75;750;-69
2022/02/23 08:56:03;;;;;;;;;;;23.90;39.30;;;;;;1567110;75;754;-70
2022/02/23 08:58:05;;;;;;;;;;;23.90;39.20;;;;;;1569173;75;805;-70
2022/02/23 09:00:08;;;;;;;;;;;24.00;39.00;;;;;;1544848;75;774;-70
2022/02/23 09:02:09;;;;;;;;;;;23.90;38.60;;;;;;1559194;75;1932;-70
2022/02/23 09:04:11;;;;;;;;;;;23.90;38.60;;;;;;1552259;76;857;-70
2022/02/23 09:06:13;;;;;;;;;;;23.90;38.50;;;;;;1548466;75;738;-70
2022/02/23 09:08:15;;;;;;;;;;;23.90;38.40;;;;;;1560187;75;800;-69
2022/02/23 09:10:17;;;;;;;;;;;23.90;38.40;;;;;;1555965;75;775;-70
2022/02/23 09:12:19;;;;;;;;;;;23.90;38.40;;;;;;1557576;75;1147;-72
2022/02/23 09:14:21;;;;;;;;;;;23.90;38.40;;;;;;1548714;75;789;-71
2022/02/23 09:16:23;;;;;;;;;;;23.90;38.40;;;;;;1569815;75;786;-74
2022/02/23 09:18:25;;;;;;;;;;;23.80;38.10;;;;;;1548190;74;801;-69
2022/02/23 09:20:27;;;;;;;;;;;23.90;38.20;;;;;;1558137;75;774;-70
2022/02/23 09:22:29;;;;;;;;;;;23.90;38.20;;;;;;1550575;75;2203;-74
2022/02/23 09:24:31;;;;;;;;;;;23.90;38.10;;;;;;1551546;75;727;-70
2022/02/23 09:26:33;;;;;;;;;;;23.90;38.10;;;;;;1552569;75;822;-70
2022/02/23 09:28:37;;;;;;;;;;;23.90;38.10;;;;;;1558410;75;801;-70
2022/02/23 09:30:39;;;;;;;;;;;23.80;38.00;;;;;;1559359;75;742;-70
2022/02/23 09:32:41;;;;;;;;;;;23.90;38.00;;;;;;1552125;75;1150;-70
2022/02/23 09:34:43;;;;;;;;;;;23.80;37.90;;;;;;1565312;75;749;-71
2022/02/23 09:36:45;;;;;;;;;;;23.90;37.90;;;;;;1559018;75;791;-71
2022/02/23 09:38:47;;;;;;;;;;;23.90;37.80;;;;;;1554812;75;807;-69
2022/02/23 09:40:49;;;;;;;;;;;23.90;37.90;;;;;;1547096;75;792;-74
2022/02/23 09:42:51;;;;;;;;;;;23.90;37.80;;;;;;1551581;75;1940;-73
2022/02/23 09:44:53;;;;;;;;;;;23.80;37.80;;;;;;1568548;75;760;-73
2022/02/23 09:46:55;;;;;;;;;;;23.80;37.60;;;;;;1557598;75;707;-73
2022/02/23 09:48:58;;;;;;;;;;;23.80;37.70;;;;;;1547314;76;784;-69
2022/02/23 09:51:00;;;;;;;;;;;23.80;37.60;;;;;;1562745;75;699;-70
2022/02/23 09:53:02;;;;;;;;;;;23.80;37.80;;;;;;1554030;76;1081;-69
2022/02/23 09:55:05;;;;;;;;;;;23.80;37.80;;;;;;1575078;75;776;-70
2022/02/23 09:57:06;;;;;;;;;;;23.70;37.80;;;;;;1555810;75;710;-70
2022/02/23 09:59:09;;;;;;;;;;;23.90;37.90;;;;;;1555847;75;715;-67
2022/02/23 10:01:11;;;;;;;;;;;23.70;37.60;;;;;;1549098;75;794;-70
2022/02/23 10:03:13;;;;;;;;;;;23.80;37.60;;;;;;1567396;75;1919;-70
2022/02/23 10:05:17;;;;;;;;;;;23.80;37.60;;;;;;1538665;76;700;-71
2022/02/23 10:07:31;;;;;;;;;;;23.80;37.40;;;;;;1556558;75;1524;-72
2022/02/23 10:09:42;;;;;;;;;;;23.80;37.40;;;;;;1559260;75;688;-70
2022/02/23 10:11:46;;;;;;;;;;;23.70;37.30;;;;;;1545367;75;1132;-72
2022/02/23 10:13:50;;;;;;;;;;;23.70;37.00;;;;;;1555336;75;787;-71
2022/02/23 10:15:52;;;;;;;;;;;23.80;37.00;;;;;;1560143;75;2216;-69
2022/02/23 10:17:54;;;;;;;;;;;23.80;36.80;;;;;;1557356;75;751;-70
2022/02/23 10:19:57;;;;;;;;;;;23.70;36.50;;;;;;1555300;74;801;-70
2022/02/23 10:22:00;;;;;;;;;;;23.80;36.50;;;;;;1551174;75;1917;-70
2022/02/23 10:24:20;;;;;;;;;;;23.70;36.20;;;;;;1561467;75;726;-71
2022/02/23 10:26:22;;;;;;;;;;;23.70;36.00;;;;;;1554950;75;801;-70
2022/02/23 10:28:28;;;;;;;;;;;23.70;35.90;;;;;;1526154;75;1159;-71
2022/02/23 10:30:30;;;;;;;;;;;23.70;35.80;;;;;;1554036;75;1811;-71
2022/02/23 10:32:32;;;;;;;;;;;23.60;35.60;;;;;;1547177;76;1131;-69
2022/02/23 10:34:38;;;;;;;;;;;23.60;35.30;;;;;;1553498;75;781;-69
2022/02/23 10:36:40;;;;;;;;;;;23.60;35.30;;;;;;1539477;76;914;-69
2022/02/23 10:38:43;;;;;;;;;;;23.70;35.90;;;;;;1552012;75;715;-69
2022/02/23 10:40:46;;;;;;;;;;;23.70;36.30;;;;;;1555705;75;806;-69
2022/02/23 10:42:48;;;;;;;;;;;23.70;36.30;;;;;;1557664;75;1946;-70
2022/02/23 10:44:53;;;;;;;;;;;23.80;36.50;;;;;;1573812;75;784;-66
2022/02/23 10:46:55;;;;;;;;;;;23.80;36.50;;;;;;1563750;75;674;-68
2022/02/23 10:48:59;;;;;;;;;;;23.90;36.60;;;;;;1573404;75;717;-68
2022/02/23 10:51:02;;;;;;;;;;;23.90;36.60;;;;;;1564445;74;824;-69
2022/02/23 10:53:04;;;;;;;;;;;23.90;36.60;;;;;;1569291;75;1179;-68
2022/02/23 10:55:20;;;;;;;;;;;24.00;36.60;;;;;;1553530;75;797;-68
2022/02/23 10:57:22;;;;;;;;;;;24.00;36.70;;;;;;1554356;75;2039;-68
2022/02/23 10:59:25;;;;;;;;;;;24.10;36.70;;;;;;1547998;75;787;-69
2022/02/23 11:01:26;;;;;;;;;;;24.10;36.80;;;;;;1561204;75;806;-69
2022/02/23 11:03:28;;;;;;;;;;;24.20;36.80;;;;;;1547569;75;1921;-69
2022/02/23 11:05:32;;;;;;;;;;;24.20;36.80;;;;;;1552588;75;724;-68
2022/02/23 11:07:34;;;;;;;;;;;24.20;36.80;;;;;;1558313;75;1705;-70
2022/02/23 11:09:36;;;;;;;;;;;24.20;36.90;;;;;;1555434;76;722;-71
2022/02/23 11:11:38;;;;;;;;;;;24.30;37.10;;;;;;1552942;75;851;-68
2022/02/23 11:13:40;;;;;;;;;;;24.30;37.10;;;;;;1546389;76;812;-68
2022/02/23 11:15:46;;;;;;;;;;;24.30;37.10;;;;;;1554928;75;779;-68
2022/02/23 11:17:52;;;;;;;;;;;24.30;37.30;;;;;;1549165;75;830;-68
2022/02/23 11:19:53;;;;;;;;;;;24.30;37.30;;;;;;1551563;75;705;-68
2022/02/23 11:21:55;;;;;;;;;;;24.30;37.50;;;;;;1550274;75;1141;-68
2022/02/23 11:23:58;;;;;;;;;;;24.40;37.50;;;;;;1553924;75;1935;-67
2022/02/23 11:26:00;;;;;;;;;;;24.30;37.60;;;;;;1555415;76;760;-68
2022/02/23 11:28:03;;;;;;;;;;;24.30;37.60;;;;;;1549567;75;792;-67
2022/02/23 11:30:05;;;;;;;;;;;24.40;37.60;;;;;;1542323;75;1805;-71
2022/02/23 11:32:07;;;;;;;;;;;24.40;37.70;;;;;;1557339;75;1126;-69
2022/02/23 11:34:09;;;;;;;;;;;24.40;37.70;;;;;;1555338;75;765;-71
2022/02/23 11:36:18;;;;;;;;;;;24.40;37.70;;;;;;1550627;75;708;-68
2022/02/23 11:38:22;;;;;;;;;;;24.50;37.80;;;;;;1553563;75;801;-68
2022/02/23 11:40:24;;;;;;;;;;;24.40;37.80;;;;;;1562788;75;1773;-68
2022/02/23 11:42:26;;;;;;;;;;;24.50;38.00;;;;;;1548890;75;1950;-69
2022/02/23 11:44:29;;;;;;;;;;;24.50;37.90;;;;;;1554884;75;739;-71
2022/02/23 11:46:31;;;;;;;;;;;24.50;37.90;;;;;;1557014;75;759;-69
2022/02/23 11:48:49;;;;;;;;;;;24.50;38.00;;;;;;1547151;75;728;-68
2022/02/23 11:51:02;;;;;;;;;;;24.50;38.10;;;;;;1553336;76;897;-67
2022/02/23 11:53:06;;;;;;;;;;;24.50;38.10;;;;;;1552245;75;1673;-68
2022/02/23 11:55:15;;;;;;;;;;;24.50;38.20;;;;;;1550031;75;1562;-68
2022/02/23 11:57:34;;;;;;;;;;;24.50;38.20;;;;;;1557491;75;759;-67
2022/02/23 11:59:46;;;;;;;;;;;24.50;38.20;;;;;;1557905;75;772;-69
2022/02/23 12:01:48;;;;;;;;;;;24.60;38.30;;;;;;1556344;76;1148;-68
2022/02/23 12:04:08;;;;;;;;;;;24.60;38.30;;;;;;1552928;75;1930;-68
2022/02/23 12:06:10;;;;;;;;;;;24.60;38.40;;;;;;1555620;75;763;-70
2022/02/23 12:08:30;;;;;;;;;;;24.50;38.40;;;;;;1562270;75;737;-68
2022/02/23 12:10:32;;;;;;;;;;;24.50;38.40;;;;;;1547508;75;794;-68
2022/02/23 12:12:40;;;;;;;;;;;24.60;38.40;;;;;;1563667;75;1209;-70
2022/02/23 12:14:52;;;;;;;;;;;24.60;38.50;;;;;;1546003;75;686;-69
2022/02/23 12:16:55;;;;;;;;;;;24.60;38.40;;;;;;1558555;75;694;-67